sensor_id;sensor_type;location;lat;lon;timestamp;P1;durP1;ratioP1;P2;durP2;ratioP2
12878;SDS011;20617;49.476;10.986;2022-10-16T00:00:17;3.30;;;1.30;;
12878;SDS011;20617;49.476;10.986;2022-10-16T00:02:22;2.13;;;1.10;;
12878;SDS011;20617;49.476;10.986;2022-10-16T00:04:27;2.53;;;1.20;;
12878;SDS011;20617;49.476;10.986;2022-10-16T00:06:32;2.25;;;1.30;;
12878;SDS011;20617;49.476;10.986;2022-10-16T00:08:37;2.35;;;1.42;;
12878;SDS011;20617;49.476;10.986;2022-10-16T00:10:45;1.33;;;1.10;;
12878;SDS011;20617;49.476;10.986;2022-10-16T00:12:49;1.77;;;0.90;;
12878;SDS011;20617;49.476;10.986;2022-10-16T00:14:54;2.10;;;1.20;;
12878;SDS011;20617;49.476;10.986;2022-10-16T00:16:59;2.42;;;1.38;;
12878;SDS011;20617;49.476;10.986;2022-10-16T00:19:04;2.08;;;1.45;;
12878;SDS011;20617;49.476;10.986;2022-10-16T00:23:15;2.27;;;1.33;;
12878;SDS011;20617;49.476;10.986;2022-10-16T00:25:20;1.65;;;1.30;;
12878;SDS011;20617;49.476;10.986;2022-10-16T00:27:27;3.50;;;1.33;;
12878;SDS011;20617;49.476;10.986;2022-10-16T00:29:33;1.40;;;1.30;;
12878;SDS011;20617;49.476;10.986;2022-10-16T00:31:38;2.53;;;1.30;;
12878;SDS011;20617;49.476;10.986;2022-10-16T00:33:43;2.42;;;1.40;;
12878;SDS011;20617;49.476;10.986;2022-10-16T00:35:48;2.58;;;1.25;;
12878;SDS011;20617;49.476;10.986;2022-10-16T00:37:53;1.35;;;1.17;;
12878;SDS011;20617;49.476;10.986;2022-10-16T00:39:58;1.35;;;1.25;;
12878;SDS011;20617;49.476;10.986;2022-10-16T00:42:02;3.13;;;1.50;;
12878;SDS011;20617;49.476;10.986;2022-10-16T00:46:31;2.47;;;1.63;;
12878;SDS011;20617;49.476;10.986;2022-10-16T00:48:41;3.10;;;1.35;;
12878;SDS011;20617;49.476;10.986;2022-10-16T00:50:49;1.95;;;1.10;;
12878;SDS011;20617;49.476;10.986;2022-10-16T00:55:00;2.45;;;1.50;;
12878;SDS011;20617;49.476;10.986;2022-10-16T00:57:07;1.63;;;1.40;;
12878;SDS011;20617;49.476;10.986;2022-10-16T01:01:19;2.33;;;1.58;;
12878;SDS011;20617;49.476;10.986;2022-10-16T01:03:30;3.08;;;1.70;;
12878;SDS011;20617;49.476;10.986;2022-10-16T01:05:38;1.83;;;1.40;;
12878;SDS011;20617;49.476;10.986;2022-10-16T01:07:51;4.70;;;1.48;;
12878;SDS011;20617;49.476;10.986;2022-10-16T01:10:05;5.45;;;1.80;;
12878;SDS011;20617;49.476;10.986;2022-10-16T01:12:14;3.50;;;1.50;;
12878;SDS011;20617;49.476;10.986;2022-10-16T01:14:27;5.80;;;1.80;;
12878;SDS011;20617;49.476;10.986;2022-10-16T01:16:43;2.70;;;1.60;;
12878;SDS011;20617;49.476;10.986;2022-10-16T01:18:57;1.98;;;1.50;;
12878;SDS011;20617;49.476;10.986;2022-10-16T01:21:10;2.03;;;1.48;;
12878;SDS011;20617;49.476;10.986;2022-10-16T01:23:27;3.72;;;1.52;;
12878;SDS011;20617;49.476;10.986;2022-10-16T01:25:48;2.85;;;1.50;;
12878;SDS011;20617;49.476;10.986;2022-10-16T01:28:06;2.10;;;1.60;;
12878;SDS011;20617;49.476;10.986;2022-10-16T01:30:17;2.47;;;1.40;;
12878;SDS011;20617;49.476;10.986;2022-10-16T01:32:28;2.65;;;1.58;;
12878;SDS011;20617;49.476;10.986;2022-10-16T01:34:39;1.52;;;1.42;;
12878;SDS011;20617;49.476;10.986;2022-10-16T01:36:51;3.40;;;1.30;;
12878;SDS011;20617;49.476;10.986;2022-10-16T01:39:01;4.85;;;1.60;;
12878;SDS011;20617;49.476;10.986;2022-10-16T01:41:08;3.17;;;2.10;;
12878;SDS011;20617;49.476;10.986;2022-10-16T01:43:19;2.72;;;1.55;;
12878;SDS011;20617;49.476;10.986;2022-10-16T01:45:30;3.15;;;1.60;;
12878;SDS011;20617;49.476;10.986;2022-10-16T01:47:37;2.65;;;1.65;;
12878;SDS011;20617;49.476;10.986;2022-10-16T01:49:43;2.78;;;1.60;;
12878;SDS011;20617;49.476;10.986;2022-10-16T01:51:50;1.73;;;1.52;;
12878;SDS011;20617;49.476;10.986;2022-10-16T01:53:59;4.10;;;1.60;;
12878;SDS011;20617;49.476;10.986;2022-10-16T01:56:07;4.65;;;1.90;;
12878;SDS011;20617;49.476;10.986;2022-10-16T01:58:14;4.20;;;1.50;;
12878;SDS011;20617;49.476;10.986;2022-10-16T02:00:21;2.97;;;1.48;;
12878;SDS011;20617;49.476;10.986;2022-10-16T02:02:28;2.90;;;1.80;;
12878;SDS011;20617;49.476;10.986;2022-10-16T02:04:36;4.05;;;1.60;;
12878;SDS011;20617;49.476;10.986;2022-10-16T02:06:43;2.70;;;1.55;;
12878;SDS011;20617;49.476;10.986;2022-10-16T02:08:48;3.17;;;1.65;;
12878;SDS011;20617;49.476;10.986;2022-10-16T02:10:54;5.10;;;1.50;;
12878;SDS011;20617;49.476;10.986;2022-10-16T02:13:00;2.15;;;1.42;;
12878;SDS011;20617;49.476;10.986;2022-10-16T02:15:10;6.00;;;1.92;;
12878;SDS011;20617;49.476;10.986;2022-10-16T02:17:18;2.83;;;1.60;;
12878;SDS011;20617;49.476;10.986;2022-10-16T02:19:23;2.20;;;1.60;;
12878;SDS011;20617;49.476;10.986;2022-10-16T02:23:35;3.97;;;1.63;;
12878;SDS011;20617;49.476;10.986;2022-10-16T02:25:47;2.75;;;1.60;;
12878;SDS011;20617;49.476;10.986;2022-10-16T02:27:56;4.07;;;1.50;;
12878;SDS011;20617;49.476;10.986;2022-10-16T02:30:06;5.75;;;1.65;;
12878;SDS011;20617;49.476;10.986;2022-10-16T02:32:19;1.95;;;1.40;;
12878;SDS011;20617;49.476;10.986;2022-10-16T02:34:28;1.85;;;1.42;;
12878;SDS011;20617;49.476;10.986;2022-10-16T02:36:36;3.13;;;1.77;;
12878;SDS011;20617;49.476;10.986;2022-10-16T02:38:42;3.85;;;1.88;;
12878;SDS011;20617;49.476;10.986;2022-10-16T02:40:47;4.45;;;2.05;;
12878;SDS011;20617;49.476;10.986;2022-10-16T02:42:53;8.10;;;6.20;;
12878;SDS011;20617;49.476;10.986;2022-10-16T02:44:59;16.45;;;11.73;;
12878;SDS011;20617;49.476;10.986;2022-10-16T02:47:04;16.52;;;12.38;;
12878;SDS011;20617;49.476;10.986;2022-10-16T02:51:16;6.25;;;3.47;;
12878;SDS011;20617;49.476;10.986;2022-10-16T02:53:21;3.70;;;1.73;;
12878;SDS011;20617;49.476;10.986;2022-10-16T02:55:26;4.00;;;1.83;;
12878;SDS011;20617;49.476;10.986;2022-10-16T02:57:32;5.57;;;2.58;;
12878;SDS011;20617;49.476;10.986;2022-10-16T02:59:38;3.08;;;1.90;;
12878;SDS011;20617;49.476;10.986;2022-10-16T03:01:43;2.90;;;1.40;;
12878;SDS011;20617;49.476;10.986;2022-10-16T03:03:47;3.33;;;1.77;;
12878;SDS011;20617;49.476;10.986;2022-10-16T03:05:55;3.45;;;1.75;;
12878;SDS011;20617;49.476;10.986;2022-10-16T03:08:00;6.25;;;1.90;;
12878;SDS011;20617;49.476;10.986;2022-10-16T03:10:05;4.65;;;1.55;;
12878;SDS011;20617;49.476;10.986;2022-10-16T03:12:10;3.03;;;1.88;;
12878;SDS011;20617;49.476;10.986;2022-10-16T03:14:16;4.38;;;2.08;;
12878;SDS011;20617;49.476;10.986;2022-10-16T03:16:21;3.03;;;1.58;;
12878;SDS011;20617;49.476;10.986;2022-10-16T03:18:26;3.33;;;2.00;;
12878;SDS011;20617;49.476;10.986;2022-10-16T03:20:30;4.35;;;1.83;;
12878;SDS011;20617;49.476;10.986;2022-10-16T03:22:38;1.92;;;1.73;;
12878;SDS011;20617;49.476;10.986;2022-10-16T03:24:43;2.78;;;1.55;;
12878;SDS011;20617;49.476;10.986;2022-10-16T03:26:47;4.47;;;1.95;;
12878;SDS011;20617;49.476;10.986;2022-10-16T03:28:52;2.08;;;1.70;;
12878;SDS011;20617;49.476;10.986;2022-10-16T03:30:57;1.90;;;1.60;;
12878;SDS011;20617;49.476;10.986;2022-10-16T03:33:02;4.32;;;1.48;;
12878;SDS011;20617;49.476;10.986;2022-10-16T03:35:07;4.38;;;1.77;;
12878;SDS011;20617;49.476;10.986;2022-10-16T03:37:12;3.47;;;1.60;;
12878;SDS011;20617;49.476;10.986;2022-10-16T03:39:19;3.83;;;1.60;;
12878;SDS011;20617;49.476;10.986;2022-10-16T03:41:27;2.67;;;1.35;;
12878;SDS011;20617;49.476;10.986;2022-10-16T03:43:31;4.15;;;1.63;;
12878;SDS011;20617;49.476;10.986;2022-10-16T03:45:36;3.40;;;1.65;;
12878;SDS011;20617;49.476;10.986;2022-10-16T03:47:41;6.05;;;1.50;;
12878;SDS011;20617;49.476;10.986;2022-10-16T03:49:46;2.45;;;1.65;;
12878;SDS011;20617;49.476;10.986;2022-10-16T03:51:51;4.97;;;1.88;;
12878;SDS011;20617;49.476;10.986;2022-10-16T03:53:55;1.67;;;1.33;;
12878;SDS011;20617;49.476;10.986;2022-10-16T03:56:03;1.73;;;1.20;;
12878;SDS011;20617;49.476;10.986;2022-10-16T03:58:08;1.75;;;1.55;;
12878;SDS011;20617;49.476;10.986;2022-10-16T04:00:13;2.85;;;1.58;;
12878;SDS011;20617;49.476;10.986;2022-10-16T04:02:18;1.95;;;1.48;;
12878;SDS011;20617;49.476;10.986;2022-10-16T04:04:23;2.33;;;1.48;;
12878;SDS011;20617;49.476;10.986;2022-10-16T04:06:28;2.20;;;1.40;;
12878;SDS011;20617;49.476;10.986;2022-10-16T04:08:32;2.20;;;1.73;;
12878;SDS011;20617;49.476;10.986;2022-10-16T04:10:38;1.77;;;1.40;;
12878;SDS011;20617;49.476;10.986;2022-10-16T04:12:45;2.30;;;1.30;;
12878;SDS011;20617;49.476;10.986;2022-10-16T04:14:50;3.55;;;1.60;;
12878;SDS011;20617;49.476;10.986;2022-10-16T04:16:55;2.63;;;1.40;;
12878;SDS011;20617;49.476;10.986;2022-10-16T04:19:00;2.83;;;1.45;;
12878;SDS011;20617;49.476;10.986;2022-10-16T04:21:05;1.63;;;1.52;;
12878;SDS011;20617;49.476;10.986;2022-10-16T04:23:10;2.15;;;1.60;;
12878;SDS011;20617;49.476;10.986;2022-10-16T04:25:15;3.35;;;1.67;;
12878;SDS011;20617;49.476;10.986;2022-10-16T04:27:20;1.58;;;1.42;;
12878;SDS011;20617;49.476;10.986;2022-10-16T04:29:28;4.50;;;1.58;;
12878;SDS011;20617;49.476;10.986;2022-10-16T04:31:33;2.47;;;1.45;;
12878;SDS011;20617;49.476;10.986;2022-10-16T04:33:38;1.65;;;1.27;;
12878;SDS011;20617;49.476;10.986;2022-10-16T04:35:45;5.20;;;1.85;;
12878;SDS011;20617;49.476;10.986;2022-10-16T04:37:50;3.70;;;1.60;;
12878;SDS011;20617;49.476;10.986;2022-10-16T04:39:55;3.13;;;1.30;;
12878;SDS011;20617;49.476;10.986;2022-10-16T04:42:00;2.00;;;1.23;;
12878;SDS011;20617;49.476;10.986;2022-10-16T04:44:05;2.40;;;1.40;;
12878;SDS011;20617;49.476;10.986;2022-10-16T04:46:12;1.60;;;1.50;;
12878;SDS011;20617;49.476;10.986;2022-10-16T04:48:17;6.45;;;1.70;;
12878;SDS011;20617;49.476;10.986;2022-10-16T04:50:22;3.25;;;1.75;;
12878;SDS011;20617;49.476;10.986;2022-10-16T04:52:39;3.63;;;1.60;;
12878;SDS011;20617;49.476;10.986;2022-10-16T04:54:44;2.65;;;1.30;;
12878;SDS011;20617;49.476;10.986;2022-10-16T04:56:49;1.65;;;1.52;;
12878;SDS011;20617;49.476;10.986;2022-10-16T04:58:53;5.75;;;2.40;;
12878;SDS011;20617;49.476;10.986;2022-10-16T05:00:58;3.13;;;1.90;;
12878;SDS011;20617;49.476;10.986;2022-10-16T05:03:06;5.63;;;2.17;;
12878;SDS011;20617;49.476;10.986;2022-10-16T05:05:11;4.38;;;1.63;;
12878;SDS011;20617;49.476;10.986;2022-10-16T05:07:16;4.70;;;2.17;;
12878;SDS011;20617;49.476;10.986;2022-10-16T05:09:21;5.47;;;2.35;;
12878;SDS011;20617;49.476;10.986;2022-10-16T05:11:26;5.63;;;2.22;;
12878;SDS011;20617;49.476;10.986;2022-10-16T05:13:31;2.55;;;1.75;;
12878;SDS011;20617;49.476;10.986;2022-10-16T05:15:36;5.00;;;1.80;;
12878;SDS011;20617;49.476;10.986;2022-10-16T05:17:40;2.28;;;1.60;;
12878;SDS011;20617;49.476;10.986;2022-10-16T05:19:48;6.32;;;2.03;;
12878;SDS011;20617;49.476;10.986;2022-10-16T05:21:53;1.73;;;1.50;;
12878;SDS011;20617;49.476;10.986;2022-10-16T05:23:57;2.90;;;1.52;;
12878;SDS011;20617;49.476;10.986;2022-10-16T05:26:02;1.92;;;1.40;;
12878;SDS011;20617;49.476;10.986;2022-10-16T05:28:07;2.25;;;1.50;;
12878;SDS011;20617;49.476;10.986;2022-10-16T05:30:12;2.83;;;1.50;;
12878;SDS011;20617;49.476;10.986;2022-10-16T05:32:17;3.28;;;1.30;;
12878;SDS011;20617;49.476;10.986;2022-10-16T05:34:23;1.90;;;1.40;;
12878;SDS011;20617;49.476;10.986;2022-10-16T05:36:30;3.40;;;1.85;;
12878;SDS011;20617;49.476;10.986;2022-10-16T05:38:35;1.85;;;1.50;;
12878;SDS011;20617;49.476;10.986;2022-10-16T05:40:41;2.63;;;1.58;;
12878;SDS011;20617;49.476;10.986;2022-10-16T05:42:46;1.90;;;1.55;;
12878;SDS011;20617;49.476;10.986;2022-10-16T05:44:51;5.93;;;1.80;;
12878;SDS011;20617;49.476;10.986;2022-10-16T05:46:56;4.40;;;1.90;;
12878;SDS011;20617;49.476;10.986;2022-10-16T05:49:01;5.95;;;2.20;;
12878;SDS011;20617;49.476;10.986;2022-10-16T05:51:06;2.47;;;1.38;;
12878;SDS011;20617;49.476;10.986;2022-10-16T05:53:16;3.58;;;1.40;;
12878;SDS011;20617;49.476;10.986;2022-10-16T05:55:26;4.57;;;1.85;;
12878;SDS011;20617;49.476;10.986;2022-10-16T05:57:31;3.22;;;1.85;;
12878;SDS011;20617;49.476;10.986;2022-10-16T05:59:36;4.78;;;1.90;;
12878;SDS011;20617;49.476;10.986;2022-10-16T06:01:41;3.33;;;1.75;;
12878;SDS011;20617;49.476;10.986;2022-10-16T06:03:46;2.38;;;1.55;;
12878;SDS011;20617;49.476;10.986;2022-10-16T06:05:51;3.03;;;1.60;;
12878;SDS011;20617;49.476;10.986;2022-10-16T06:10:04;3.50;;;1.70;;
12878;SDS011;20617;49.476;10.986;2022-10-16T06:12:10;2.78;;;1.80;;
12878;SDS011;20617;49.476;10.986;2022-10-16T06:14:15;3.47;;;1.52;;
12878;SDS011;20617;49.476;10.986;2022-10-16T06:16:20;3.50;;;1.63;;
12878;SDS011;20617;49.476;10.986;2022-10-16T06:20:30;4.03;;;1.98;;
12878;SDS011;20617;49.476;10.986;2022-10-16T06:22:35;1.75;;;1.60;;
12878;SDS011;20617;49.476;10.986;2022-10-16T06:24:40;3.10;;;1.60;;
12878;SDS011;20617;49.476;10.986;2022-10-16T06:26:47;2.03;;;1.77;;
12878;SDS011;20617;49.476;10.986;2022-10-16T06:28:53;3.42;;;2.03;;
12878;SDS011;20617;49.476;10.986;2022-10-16T06:30:59;3.47;;;1.90;;
12878;SDS011;20617;49.476;10.986;2022-10-16T06:33:08;2.50;;;1.80;;
12878;SDS011;20617;49.476;10.986;2022-10-16T06:35:13;3.33;;;1.77;;
12878;SDS011;20617;49.476;10.986;2022-10-16T06:37:18;1.88;;;1.52;;
12878;SDS011;20617;49.476;10.986;2022-10-16T06:39:23;2.00;;;1.80;;
12878;SDS011;20617;49.476;10.986;2022-10-16T06:41:28;3.45;;;1.90;;
12878;SDS011;20617;49.476;10.986;2022-10-16T06:43:45;4.47;;;1.90;;
12878;SDS011;20617;49.476;10.986;2022-10-16T06:45:50;5.05;;;2.08;;
12878;SDS011;20617;49.476;10.986;2022-10-16T06:47:59;3.88;;;1.80;;
12878;SDS011;20617;49.476;10.986;2022-10-16T06:50:05;3.05;;;2.15;;
12878;SDS011;20617;49.476;10.986;2022-10-16T06:52:10;6.47;;;2.13;;
12878;SDS011;20617;49.476;10.986;2022-10-16T06:54:15;3.25;;;2.40;;
12878;SDS011;20617;49.476;10.986;2022-10-16T06:56:21;2.40;;;1.92;;
12878;SDS011;20617;49.476;10.986;2022-10-16T06:58:27;3.20;;;1.95;;
12878;SDS011;20617;49.476;10.986;2022-10-16T07:00:35;5.72;;;2.13;;
12878;SDS011;20617;49.476;10.986;2022-10-16T07:02:39;3.65;;;1.90;;
12878;SDS011;20617;49.476;10.986;2022-10-16T07:04:44;2.75;;;2.00;;
12878;SDS011;20617;49.476;10.986;2022-10-16T07:06:49;4.38;;;1.90;;
12878;SDS011;20617;49.476;10.986;2022-10-16T07:08:54;3.35;;;1.85;;
12878;SDS011;20617;49.476;10.986;2022-10-16T07:11:00;2.70;;;1.75;;
12878;SDS011;20617;49.476;10.986;2022-10-16T07:13:05;5.80;;;1.73;;
12878;SDS011;20617;49.476;10.986;2022-10-16T07:15:14;1.95;;;1.65;;
12878;SDS011;20617;49.476;10.986;2022-10-16T07:17:22;1.98;;;1.75;;
12878;SDS011;20617;49.476;10.986;2022-10-16T07:19:28;3.30;;;1.85;;
12878;SDS011;20617;49.476;10.986;2022-10-16T07:21:35;2.85;;;1.75;;
12878;SDS011;20617;49.476;10.986;2022-10-16T07:23:40;2.50;;;1.70;;
12878;SDS011;20617;49.476;10.986;2022-10-16T07:25:45;2.67;;;1.90;;
12878;SDS011;20617;49.476;10.986;2022-10-16T07:27:57;3.03;;;1.83;;
12878;SDS011;20617;49.476;10.986;2022-10-16T07:30:02;2.90;;;1.60;;
12878;SDS011;20617;49.476;10.986;2022-10-16T07:32:09;2.65;;;2.00;;
12878;SDS011;20617;49.476;10.986;2022-10-16T07:34:17;3.45;;;1.70;;
12878;SDS011;20617;49.476;10.986;2022-10-16T07:36:23;2.03;;;1.75;;
12878;SDS011;20617;49.476;10.986;2022-10-16T07:40:33;3.95;;;2.22;;
12878;SDS011;20617;49.476;10.986;2022-10-16T07:42:37;3.25;;;1.77;;
12878;SDS011;20617;49.476;10.986;2022-10-16T07:44:42;2.55;;;1.80;;
12878;SDS011;20617;49.476;10.986;2022-10-16T07:46:47;4.28;;;2.08;;
12878;SDS011;20617;49.476;10.986;2022-10-16T07:48:52;1.70;;;1.60;;
12878;SDS011;20617;49.476;10.986;2022-10-16T07:51:00;3.25;;;2.28;;
12878;SDS011;20617;49.476;10.986;2022-10-16T07:53:06;2.85;;;2.05;;
12878;SDS011;20617;49.476;10.986;2022-10-16T07:57:16;4.35;;;2.25;;
12878;SDS011;20617;49.476;10.986;2022-10-16T07:59:21;3.22;;;2.45;;
12878;SDS011;20617;49.476;10.986;2022-10-16T08:01:27;2.72;;;1.85;;
12878;SDS011;20617;49.476;10.986;2022-10-16T08:03:32;2.97;;;1.80;;
12878;SDS011;20617;49.476;10.986;2022-10-16T08:05:38;2.47;;;1.80;;
12878;SDS011;20617;49.476;10.986;2022-10-16T08:07:50;2.83;;;1.80;;
12878;SDS011;20617;49.476;10.986;2022-10-16T08:09:55;5.60;;;2.05;;
12878;SDS011;20617;49.476;10.986;2022-10-16T08:12:00;5.43;;;2.08;;
12878;SDS011;20617;49.476;10.986;2022-10-16T08:14:05;2.95;;;1.98;;
12878;SDS011;20617;49.476;10.986;2022-10-16T08:16:11;3.88;;;2.28;;
12878;SDS011;20617;49.476;10.986;2022-10-16T08:18:16;3.05;;;1.98;;
12878;SDS011;20617;49.476;10.986;2022-10-16T08:20:21;4.03;;;2.15;;
12878;SDS011;20617;49.476;10.986;2022-10-16T08:22:26;2.38;;;1.90;;
12878;SDS011;20617;49.476;10.986;2022-10-16T08:24:33;7.28;;;1.77;;
12878;SDS011;20617;49.476;10.986;2022-10-16T08:26:38;3.40;;;2.05;;
12878;SDS011;20617;49.476;10.986;2022-10-16T08:28:43;4.05;;;2.10;;
12878;SDS011;20617;49.476;10.986;2022-10-16T08:30:48;3.78;;;1.88;;
12878;SDS011;20617;49.476;10.986;2022-10-16T08:32:52;3.10;;;1.83;;
12878;SDS011;20617;49.476;10.986;2022-10-16T08:34:57;3.50;;;1.98;;
12878;SDS011;20617;49.476;10.986;2022-10-16T08:37:02;5.35;;;1.88;;
12878;SDS011;20617;49.476;10.986;2022-10-16T08:39:09;3.25;;;2.33;;
12878;SDS011;20617;49.476;10.986;2022-10-16T08:41:20;2.45;;;1.90;;
12878;SDS011;20617;49.476;10.986;2022-10-16T08:43:41;2.40;;;2.08;;
12878;SDS011;20617;49.476;10.986;2022-10-16T08:46:06;5.05;;;2.10;;
12878;SDS011;20617;49.476;10.986;2022-10-16T08:48:23;4.75;;;1.95;;
12878;SDS011;20617;49.476;10.986;2022-10-16T08:50:36;2.10;;;1.60;;
12878;SDS011;20617;49.476;10.986;2022-10-16T08:52:43;3.03;;;2.05;;
12878;SDS011;20617;49.476;10.986;2022-10-16T08:54:50;3.75;;;1.85;;
12878;SDS011;20617;49.476;10.986;2022-10-16T08:57:06;5.20;;;2.25;;
12878;SDS011;20617;49.476;10.986;2022-10-16T08:59:14;2.75;;;1.70;;
12878;SDS011;20617;49.476;10.986;2022-10-16T09:01:21;3.25;;;1.70;;
12878;SDS011;20617;49.476;10.986;2022-10-16T09:03:32;2.53;;;1.70;;
12878;SDS011;20617;49.476;10.986;2022-10-16T09:05:50;2.78;;;1.67;;
12878;SDS011;20617;49.476;10.986;2022-10-16T09:08:08;4.28;;;1.67;;
12878;SDS011;20617;49.476;10.986;2022-10-16T09:10:25;4.65;;;1.77;;
12878;SDS011;20617;49.476;10.986;2022-10-16T09:12:43;4.13;;;1.95;;
12878;SDS011;20617;49.476;10.986;2022-10-16T09:14:59;3.17;;;1.90;;
12878;SDS011;20617;49.476;10.986;2022-10-16T09:17:18;4.05;;;1.80;;
12878;SDS011;20617;49.476;10.986;2022-10-16T09:19:36;2.28;;;1.88;;
12878;SDS011;20617;49.476;10.986;2022-10-16T09:21:46;2.97;;;1.77;;
12878;SDS011;20617;49.476;10.986;2022-10-16T09:23:52;5.80;;;2.08;;
12878;SDS011;20617;49.476;10.986;2022-10-16T09:25:59;4.32;;;2.42;;
12878;SDS011;20617;49.476;10.986;2022-10-16T09:28:08;4.45;;;2.03;;
12878;SDS011;20617;49.476;10.986;2022-10-16T09:30:15;3.20;;;2.08;;
12878;SDS011;20617;49.476;10.986;2022-10-16T09:32:21;4.50;;;1.98;;
12878;SDS011;20617;49.476;10.986;2022-10-16T09:34:27;2.40;;;1.67;;
12878;SDS011;20617;49.476;10.986;2022-10-16T09:36:39;2.30;;;1.80;;
12878;SDS011;20617;49.476;10.986;2022-10-16T09:38:46;3.30;;;2.10;;
12878;SDS011;20617;49.476;10.986;2022-10-16T09:40:51;1.98;;;1.67;;
12878;SDS011;20617;49.476;10.986;2022-10-16T09:43:16;4.35;;;1.77;;
12878;SDS011;20617;49.476;10.986;2022-10-16T09:45:30;2.05;;;1.50;;
12878;SDS011;20617;49.476;10.986;2022-10-16T09:47:35;3.67;;;1.90;;
12878;SDS011;20617;49.476;10.986;2022-10-16T09:49:50;4.60;;;1.90;;
12878;SDS011;20617;49.476;10.986;2022-10-16T09:52:03;2.92;;;1.73;;
12878;SDS011;20617;49.476;10.986;2022-10-16T09:54:13;2.05;;;1.83;;
12878;SDS011;20617;49.476;10.986;2022-10-16T09:56:22;2.47;;;2.13;;
12878;SDS011;20617;49.476;10.986;2022-10-16T09:58:31;3.47;;;2.10;;
12878;SDS011;20617;49.476;10.986;2022-10-16T10:00:37;3.13;;;1.90;;
12878;SDS011;20617;49.476;10.986;2022-10-16T10:02:46;2.78;;;1.95;;
12878;SDS011;20617;49.476;10.986;2022-10-16T10:04:52;3.15;;;1.90;;
12878;SDS011;20617;49.476;10.986;2022-10-16T10:06:58;6.55;;;2.38;;
12878;SDS011;20617;49.476;10.986;2022-10-16T10:09:04;1.90;;;1.63;;
12878;SDS011;20617;49.476;10.986;2022-10-16T10:11:18;4.10;;;1.90;;
12878;SDS011;20617;49.476;10.986;2022-10-16T10:13:24;3.83;;;1.65;;
12878;SDS011;20617;49.476;10.986;2022-10-16T10:15:35;3.75;;;1.77;;
12878;SDS011;20617;49.476;10.986;2022-10-16T10:17:46;2.30;;;1.80;;
12878;SDS011;20617;49.476;10.986;2022-10-16T10:19:53;4.07;;;2.00;;
12878;SDS011;20617;49.476;10.986;2022-10-16T10:21:59;4.20;;;2.10;;
12878;SDS011;20617;49.476;10.986;2022-10-16T10:24:04;2.65;;;1.73;;
12878;SDS011;20617;49.476;10.986;2022-10-16T10:26:10;5.72;;;2.25;;
12878;SDS011;20617;49.476;10.986;2022-10-16T10:28:38;2.97;;;2.15;;
12878;SDS011;20617;49.476;10.986;2022-10-16T10:30:56;3.25;;;1.85;;
12878;SDS011;20617;49.476;10.986;2022-10-16T10:33:09;2.97;;;1.50;;
12878;SDS011;20617;49.476;10.986;2022-10-16T10:35:27;3.60;;;1.80;;
12878;SDS011;20617;49.476;10.986;2022-10-16T10:37:40;3.50;;;1.92;;
12878;SDS011;20617;49.476;10.986;2022-10-16T10:39:56;4.18;;;1.70;;
12878;SDS011;20617;49.476;10.986;2022-10-16T10:42:09;2.70;;;1.50;;
12878;SDS011;20617;49.476;10.986;2022-10-16T10:46:39;3.67;;;1.52;;
12878;SDS011;20617;49.476;10.986;2022-10-16T10:48:55;3.35;;;1.98;;
12878;SDS011;20617;49.476;10.986;2022-10-16T10:51:20;3.63;;;2.40;;
12878;SDS011;20617;49.476;10.986;2022-10-16T10:53:36;7.00;;;3.78;;
12878;SDS011;20617;49.476;10.986;2022-10-16T10:55:51;4.60;;;2.83;;
12878;SDS011;20617;49.476;10.986;2022-10-16T10:58:10;5.07;;;2.20;;
12878;SDS011;20617;49.476;10.986;2022-10-16T11:00:36;4.53;;;1.88;;
12878;SDS011;20617;49.476;10.986;2022-10-16T11:02:55;2.83;;;1.50;;
12878;SDS011;20617;49.476;10.986;2022-10-16T11:05:31;6.53;;;2.20;;
12878;SDS011;20617;49.476;10.986;2022-10-16T11:07:45;4.63;;;1.98;;
12878;SDS011;20617;49.476;10.986;2022-10-16T11:09:56;2.95;;;2.10;;
12878;SDS011;20617;49.476;10.986;2022-10-16T11:12:05;1.98;;;1.63;;
12878;SDS011;20617;49.476;10.986;2022-10-16T11:14:17;2.45;;;1.58;;
12878;SDS011;20617;49.476;10.986;2022-10-16T11:16:26;3.30;;;2.00;;
12878;SDS011;20617;49.476;10.986;2022-10-16T11:18:38;2.85;;;1.60;;
12878;SDS011;20617;49.476;10.986;2022-10-16T11:20:50;2.75;;;2.00;;
12878;SDS011;20617;49.476;10.986;2022-10-16T11:23:00;3.03;;;1.98;;
12878;SDS011;20617;49.476;10.986;2022-10-16T11:25:13;1.95;;;1.58;;
12878;SDS011;20617;49.476;10.986;2022-10-16T11:27:21;5.10;;;1.95;;
12878;SDS011;20617;49.476;10.986;2022-10-16T11:29:30;2.05;;;1.50;;
12878;SDS011;20617;49.476;10.986;2022-10-16T11:31:38;2.08;;;1.70;;
12878;SDS011;20617;49.476;10.986;2022-10-16T11:33:49;1.90;;;1.60;;
12878;SDS011;20617;49.476;10.986;2022-10-16T11:36:00;5.40;;;1.20;;
12878;SDS011;20617;49.476;10.986;2022-10-16T11:38:12;1.98;;;1.52;;
12878;SDS011;20617;49.476;10.986;2022-10-16T11:40:24;2.58;;;1.50;;
12878;SDS011;20617;49.476;10.986;2022-10-16T11:42:36;4.13;;;1.95;;
12878;SDS011;20617;49.476;10.986;2022-10-16T11:44:48;2.47;;;1.55;;
12878;SDS011;20617;49.476;10.986;2022-10-16T11:47:01;4.68;;;3.13;;
12878;SDS011;20617;49.476;10.986;2022-10-16T11:49:38;4.68;;;2.50;;
12878;SDS011;20617;49.476;10.986;2022-10-16T11:51:48;3.13;;;1.95;;
12878;SDS011;20617;49.476;10.986;2022-10-16T11:56:11;2.05;;;1.70;;
12878;SDS011;20617;49.476;10.986;2022-10-16T11:58:21;3.22;;;1.42;;
12878;SDS011;20617;49.476;10.986;2022-10-16T12:00:33;2.83;;;1.65;;
12878;SDS011;20617;49.476;10.986;2022-10-16T12:02:48;2.92;;;1.70;;
12878;SDS011;20617;49.476;10.986;2022-10-16T12:05:04;4.18;;;1.75;;
12878;SDS011;20617;49.476;10.986;2022-10-16T12:07:18;1.45;;;1.30;;
12878;SDS011;20617;49.476;10.986;2022-10-16T12:09:29;1.75;;;1.48;;
12878;SDS011;20617;49.476;10.986;2022-10-16T12:11:36;2.60;;;1.73;;
12878;SDS011;20617;49.476;10.986;2022-10-16T12:13:42;1.73;;;1.52;;
12878;SDS011;20617;49.476;10.986;2022-10-16T12:15:49;2.55;;;2.00;;
12878;SDS011;20617;49.476;10.986;2022-10-16T12:18:00;2.78;;;2.17;;
12878;SDS011;20617;49.476;10.986;2022-10-16T12:22:31;2.83;;;1.65;;
12878;SDS011;20617;49.476;10.986;2022-10-16T12:24:42;4.07;;;1.65;;
12878;SDS011;20617;49.476;10.986;2022-10-16T12:26:47;5.15;;;1.77;;
12878;SDS011;20617;49.476;10.986;2022-10-16T12:28:55;2.03;;;1.45;;
12878;SDS011;20617;49.476;10.986;2022-10-16T12:31:13;2.38;;;1.58;;
12878;SDS011;20617;49.476;10.986;2022-10-16T12:33:19;2.08;;;1.15;;
12878;SDS011;20617;49.476;10.986;2022-10-16T12:35:31;1.65;;;1.30;;
12878;SDS011;20617;49.476;10.986;2022-10-16T12:37:37;2.97;;;1.70;;
12878;SDS011;20617;49.476;10.986;2022-10-16T12:39:42;4.65;;;2.00;;
12878;SDS011;20617;49.476;10.986;2022-10-16T12:41:47;3.80;;;1.48;;
12878;SDS011;20617;49.476;10.986;2022-10-16T12:44:04;2.33;;;1.40;;
12878;SDS011;20617;49.476;10.986;2022-10-16T12:48:26;4.88;;;1.92;;
12878;SDS011;20617;49.476;10.986;2022-10-16T12:50:52;1.58;;;1.40;;
12878;SDS011;20617;49.476;10.986;2022-10-16T12:52:57;1.25;;;1.15;;
12878;SDS011;20617;49.476;10.986;2022-10-16T12:55:03;1.70;;;1.60;;
12878;SDS011;20617;49.476;10.986;2022-10-16T12:57:26;3.00;;;2.15;;
12878;SDS011;20617;49.476;10.986;2022-10-16T12:59:41;5.50;;;2.05;;
12878;SDS011;20617;49.476;10.986;2022-10-16T13:02:01;3.47;;;2.08;;
12878;SDS011;20617;49.476;10.986;2022-10-16T13:04:29;3.80;;;2.05;;
12878;SDS011;20617;49.476;10.986;2022-10-16T13:06:59;1.60;;;1.50;;
12878;SDS011;20617;49.476;10.986;2022-10-16T13:09:27;2.75;;;1.75;;
12878;SDS011;20617;49.476;10.986;2022-10-16T13:11:45;3.38;;;1.17;;